Bill Tullier — WDD9253 — position and weather

sailwx.info

Track history (hours):
 
Tides and Currents Weather Stations Pressure Air Temp Water Temp Dewpoint Dewpoint Depression Visibility Wind Speed Wind Dir Waves Ship Positions

Bill Tullier

Owner: Florida Marine, LLC, Mandeville, LA. More information available from US FCC via Universal Licensing System and Coast Guard Vessel Documentation Center.

Last reported at 2017-Sep-29 14:47 UTC. Time now 2017-Dec-13 07:17 UTC.
Position N 29°49' W 092°03'.
Warning: this ship's position is months out of date.

Length 27 m; draft 2.9 m.

Type: Towing. MMSI: 367308970.

Date/timePositionNaut miles runAvg speedWind from/ knotsBaromVisibWave heightAir tempDewpointWater temp
2017-Sep-29 14:47N 29°49' W 092°03'1 4.9
2017-Sep-29 14:30N 29°48' W 092°05'2 5.0
2017-Sep-29 14:00N 29°47' W 092°07'2 5.0
2017-Sep-29 13:30N 29°47' W 092°10'1 1.8
2017-Sep-29 13:00N 29°47' W 092°11'0 0.0
2017-Sep-29 12:30N 29°47' W 092°11'1 1.6
2017-Sep-29 12:00N 29°47' W 092°12'1 2.1
2017-Sep-29 11:30N 29°47' W 092°13'0 0.7
2017-Sep-29 11:00N 29°48' W 092°13'1 1.2
2017-Sep-29 10:30N 29°48' W 092°14'2 4.5
2017-Sep-29 10:00N 29°49' W 092°16'2 4.2
2017-Sep-29 09:30N 29°50' W 092°18'43 4.3
2017-Sep-28 23:33N 29°56' W 093°07'0 4.5
2017-Sep-28 23:30N 29°56' W 093°07'2 4.2
2017-Sep-28 23:00N 29°56' W 093°10'2 4.4
2017-Sep-28 22:30N 29°58' W 093°11'2 4.3
2017-Sep-28 22:00N 29°60' W 093°13'2 4.0
2017-Sep-28 21:30N 30°01' W 093°14'2 4.1
2017-Sep-28 21:00N 30°03' W 093°16'2 4.1
2017-Sep-28 20:30N 30°05' W 093°17'2 4.0
2017-Sep-28 20:00N 30°06' W 093°18'2 3.2
2017-Sep-28 19:30N 30°05' W 093°20'2 4.1
2017-Sep-28 19:00N 30°04' W 093°21'1 2.0
2017-Sep-28 18:30N 30°04' W 093°23'2 4.7
2017-Sep-28 18:00N 30°04' W 093°25'2 4.7
2017-Sep-28 17:30N 30°04' W 093°28'2 4.7
2017-Sep-28 17:00N 30°04' W 093°31'2 4.5
2017-Sep-28 16:30N 30°04' W 093°33'1 3.0
2017-Sep-28 16:00N 30°04' W 093°35'3 4.7
2017-Sep-28 15:23N 30°04' W 093°38'72 1.8
2017-Sep-26 22:24N 29°31' W 094°53'3 6.5
2017-Sep-26 22:00N 29°33' W 094°54'3 6.3
2017-Sep-26 21:30N 29°35' W 094°56'3 6.5
2017-Sep-26 21:00N 29°38' W 094°58'3 6.1
2017-Sep-26 20:30N 29°41' W 094°59'3 5.2
2017-Sep-26 20:00N 29°43' W 095°01'3 5.9
2017-Sep-26 19:29N 29°45' W 095°04'4 0.2
2017-Sep-25 16:15N 29°44' W 095°09'2 7.8
2017-Sep-25 16:00N 29°45' W 095°06'5 0.3
2017-Sep-24 21:07N 29°44' W 095°12'0 1.1
2017-Sep-24 21:00N 29°44' W 095°12'3 5.6
2017-Sep-24 20:28N 29°44' W 095°09'0 0.0
2017-Sep-24 14:57N 29°44' W 095°09'  
2017-Sep-22 02:00N 29°40' W 094°58'3 5.9
2017-Sep-22 01:30N 29°37' W 094°57'3 6.0
2017-Sep-22 01:00N 29°35' W 094°56'3 5.9
2017-Sep-22 00:30N 29°32' W 094°54'72 2.4
2017-Sep-20 18:29N 30°04' W 093°40'3 4.5
2017-Sep-20 17:55N 30°04' W 093°37'2 4.2
2017-Sep-20 17:28N 30°04' W 093°35'2 4.1
2017-Sep-20 17:00N 30°04' W 093°32'2 4.1
2017-Sep-20 16:30N 30°04' W 093°30'2 3.8
2017-Sep-20 16:00N 30°04' W 093°28'2 4.1
2017-Sep-20 15:30N 30°04' W 093°25'2 3.6
2017-Sep-20 15:00N 30°04' W 093°23'4 3.7
2017-Sep-20 14:00N 30°05' W 093°20'2 4.6
2017-Sep-20 13:30N 30°08' W 093°20'2 4.3
2017-Sep-20 13:00N 30°10' W 093°19'1 1.8
2017-Sep-20 12:30N 30°11' W 093°19'0 0.0
2017-Sep-20 12:00N 30°11' W 093°19'0 0.0
2017-Sep-20 11:30N 30°11' W 093°19'0 0.0
2017-Sep-20 11:00N 30°11' W 093°19'0 0.0
2017-Sep-20 10:30N 30°11' W 093°19'0 0.0
2017-Sep-20 10:00N 30°11' W 093°19'0 0.0
2017-Sep-20 09:30N 30°11' W 093°19'0 0.0
2017-Sep-20 09:00N 30°11' W 093°19'0 0.0
2017-Sep-20 08:30N 30°11' W 093°19'0 0.0
2017-Sep-20 08:00N 30°11' W 093°19'0 0.0
2017-Sep-20 07:30N 30°11' W 093°19'0 0.0
2017-Sep-20 07:00N 30°11' W 093°19'0 0.0
2017-Sep-20 06:30N 30°11' W 093°19'0 0.0
2017-Sep-20 06:00N 30°11' W 093°19'0 0.0
2017-Sep-20 05:30N 30°11' W 093°19'0 0.0
2017-Sep-20 05:00N 30°11' W 093°19'0 0.0
2017-Sep-20 04:30N 30°11' W 093°19'0 0.0
2017-Sep-20 04:00N 30°11' W 093°19'0 0.0
2017-Sep-20 03:30N 30°11' W 093°19'0 0.0
2017-Sep-20 03:00N 30°11' W 093°19'0 0.0
2017-Sep-20 02:30N 30°11' W 093°19'0 0.0
2017-Sep-20 02:00N 30°11' W 093°19'0 0.0
2017-Sep-20 01:30N 30°11' W 093°19'0 0.0
2017-Sep-20 01:00N 30°11' W 093°19'0 0.0
2017-Sep-20 00:30N 30°11' W 093°19'0 0.0
2017-Sep-20 00:00N 30°11' W 093°19'0 0.0
2017-Sep-19 23:30N 30°11' W 093°19'0 0.0
2017-Sep-19 23:00N 30°11' W 093°19'0 0.0
2017-Sep-19 22:30N 30°11' W 093°19'0 0.0
2017-Sep-19 22:00N 30°11' W 093°19'0 0.0
2017-Sep-19 21:30N 30°11' W 093°19'0 0.0
2017-Sep-19 21:00N 30°11' W 093°19'0 0.0
2017-Sep-19 20:30N 30°11' W 093°19'0 0.0
2017-Sep-19 20:00N 30°11' W 093°19'0 0.0
2017-Sep-19 19:30N 30°11' W 093°19'0 0.0
2017-Sep-19 19:00N 30°11' W 093°19'0 0.0
2017-Sep-19 18:30N 30°11' W 093°19'0 0.0
2017-Sep-19 18:00N 30°11' W 093°19'0 0.0
2017-Sep-19 17:30N 30°11' W 093°19'0 0.0
2017-Sep-19 17:00N 30°11' W 093°19'0 0.0
2017-Sep-19 16:30N 30°11' W 093°19'0 0.0
2017-Sep-19 16:00N 30°11' W 093°19'0 0.0
2017-Sep-19 15:30N 30°11' W 093°19'0 0.0
2017-Sep-19 15:00N 30°11' W 093°19'  
Track history (hours):
 
Tides and Currents Weather Stations Pressure Air Temp Water Temp Dewpoint Dewpoint Depression Visibility Wind Speed Wind Dir Waves Ship Positions

Bill Tullier

Owner: Florida Marine, LLC, Mandeville, LA. More information available from US FCC via Universal Licensing System and Coast Guard Vessel Documentation Center.

Last reported at 2017-Sep-29 14:47 UTC. Time now 2017-Dec-13 07:17 UTC.
Position N 29°49' W 092°03'.
Warning: this ship's position is months out of date.

Length 27 m; draft 2.9 m.

Type: Towing. MMSI: 367308970.

Date/timePositionNaut miles runAvg speedWind from/ knotsBaromVisibWave heightAir tempDewpointWater temp
2017-Sep-29 14:47N 29°49' W 092°03'1 4.9
2017-Sep-29 14:30N 29°48' W 092°05'2 5.0
2017-Sep-29 14:00N 29°47' W 092°07'2 5.0
2017-Sep-29 13:30N 29°47' W 092°10'1 1.8
2017-Sep-29 13:00N 29°47' W 092°11'0 0.0
2017-Sep-29 12:30N 29°47' W 092°11'1 1.6
2017-Sep-29 12:00N 29°47' W 092°12'1 2.1
2017-Sep-29 11:30N 29°47' W 092°13'0 0.7
2017-Sep-29 11:00N 29°48' W 092°13'1 1.2
2017-Sep-29 10:30N 29°48' W 092°14'2 4.5
2017-Sep-29 10:00N 29°49' W 092°16'2 4.2
2017-Sep-29 09:30N 29°50' W 092°18'43 4.3
2017-Sep-28 23:33N 29°56' W 093°07'0 4.5
2017-Sep-28 23:30N 29°56' W 093°07'2 4.2
2017-Sep-28 23:00N 29°56' W 093°10'2 4.4
2017-Sep-28 22:30N 29°58' W 093°11'2 4.3
2017-Sep-28 22:00N 29°60' W 093°13'2 4.0
2017-Sep-28 21:30N 30°01' W 093°14'2 4.1
2017-Sep-28 21:00N 30°03' W 093°16'2 4.1
2017-Sep-28 20:30N 30°05' W 093°17'2 4.0
2017-Sep-28 20:00N 30°06' W 093°18'2 3.2
2017-Sep-28 19:30N 30°05' W 093°20'2 4.1
2017-Sep-28 19:00N 30°04' W 093°21'1 2.0
2017-Sep-28 18:30N 30°04' W 093°23'2 4.7
2017-Sep-28 18:00N 30°04' W 093°25'2 4.7
2017-Sep-28 17:30N 30°04' W 093°28'2 4.7
2017-Sep-28 17:00N 30°04' W 093°31'2 4.5
2017-Sep-28 16:30N 30°04' W 093°33'1 3.0
2017-Sep-28 16:00N 30°04' W 093°35'3 4.7
2017-Sep-28 15:23N 30°04' W 093°38'72 1.8
2017-Sep-26 22:24N 29°31' W 094°53'3 6.5
2017-Sep-26 22:00N 29°33' W 094°54'3 6.3
2017-Sep-26 21:30N 29°35' W 094°56'3 6.5
2017-Sep-26 21:00N 29°38' W 094°58'3 6.1
2017-Sep-26 20:30N 29°41' W 094°59'3 5.2
2017-Sep-26 20:00N 29°43' W 095°01'3 5.9
2017-Sep-26 19:29N 29°45' W 095°04'4 0.2
2017-Sep-25 16:15N 29°44' W 095°09'2 7.8
2017-Sep-25 16:00N 29°45' W 095°06'5 0.3
2017-Sep-24 21:07N 29°44' W 095°12'0 1.1
2017-Sep-24 21:00N 29°44' W 095°12'3 5.6
2017-Sep-24 20:28N 29°44' W 095°09'0 0.0
2017-Sep-24 14:57N 29°44' W 095°09'  
2017-Sep-22 02:00N 29°40' W 094°58'3 5.9
2017-Sep-22 01:30N 29°37' W 094°57'3 6.0
2017-Sep-22 01:00N 29°35' W 094°56'3 5.9
2017-Sep-22 00:30N 29°32' W 094°54'72 2.4
2017-Sep-20 18:29N 30°04' W 093°40'3 4.5
2017-Sep-20 17:55N 30°04' W 093°37'2 4.2
2017-Sep-20 17:28N 30°04' W 093°35'2 4.1
2017-Sep-20 17:00N 30°04' W 093°32'2 4.1
2017-Sep-20 16:30N 30°04' W 093°30'2 3.8
2017-Sep-20 16:00N 30°04' W 093°28'2 4.1
2017-Sep-20 15:30N 30°04' W 093°25'2 3.6
2017-Sep-20 15:00N 30°04' W 093°23'4 3.7
2017-Sep-20 14:00N 30°05' W 093°20'2 4.6
2017-Sep-20 13:30N 30°08' W 093°20'2 4.3
2017-Sep-20 13:00N 30°10' W 093°19'1 1.8
2017-Sep-20 12:30N 30°11' W 093°19'0 0.0
2017-Sep-20 12:00N 30°11' W 093°19'0 0.0
2017-Sep-20 11:30N 30°11' W 093°19'0 0.0
2017-Sep-20 11:00N 30°11' W 093°19'0 0.0
2017-Sep-20 10:30N 30°11' W 093°19'0 0.0
2017-Sep-20 10:00N 30°11' W 093°19'0 0.0
2017-Sep-20 09:30N 30°11' W 093°19'0 0.0
2017-Sep-20 09:00N 30°11' W 093°19'0 0.0
2017-Sep-20 08:30N 30°11' W 093°19'0 0.0
2017-Sep-20 08:00N 30°11' W 093°19'0 0.0
2017-Sep-20 07:30N 30°11' W 093°19'0 0.0
2017-Sep-20 07:00N 30°11' W 093°19'0 0.0
2017-Sep-20 06:30N 30°11' W 093°19'0 0.0
2017-Sep-20 06:00N 30°11' W 093°19'0 0.0
2017-Sep-20 05:30N 30°11' W 093°19'0 0.0
2017-Sep-20 05:00N 30°11' W 093°19'0 0.0
2017-Sep-20 04:30N 30°11' W 093°19'0 0.0
2017-Sep-20 04:00N 30°11' W 093°19'0 0.0
2017-Sep-20 03:30N 30°11' W 093°19'0 0.0
2017-Sep-20 03:00N 30°11' W 093°19'0 0.0
2017-Sep-20 02:30N 30°11' W 093°19'0 0.0
2017-Sep-20 02:00N 30°11' W 093°19'0 0.0
2017-Sep-20 01:30N 30°11' W 093°19'0 0.0
2017-Sep-20 01:00N 30°11' W 093°19'0 0.0
2017-Sep-20 00:30N 30°11' W 093°19'0 0.0
2017-Sep-20 00:00N 30°11' W 093°19'0 0.0
2017-Sep-19 23:30N 30°11' W 093°19'0 0.0
2017-Sep-19 23:00N 30°11' W 093°19'0 0.0
2017-Sep-19 22:30N 30°11' W 093°19'0 0.0
2017-Sep-19 22:00N 30°11' W 093°19'0 0.0
2017-Sep-19 21:30N 30°11' W 093°19'0 0.0
2017-Sep-19 21:00N 30°11' W 093°19'0 0.0
2017-Sep-19 20:30N 30°11' W 093°19'0 0.0
2017-Sep-19 20:00N 30°11' W 093°19'0 0.0
2017-Sep-19 19:30N 30°11' W 093°19'0 0.0
2017-Sep-19 19:00N 30°11' W 093°19'0 0.0
2017-Sep-19 18:30N 30°11' W 093°19'0 0.0
2017-Sep-19 18:00N 30°11' W 093°19'0 0.0
2017-Sep-19 17:30N 30°11' W 093°19'0 0.0
2017-Sep-19 17:00N 30°11' W 093°19'0 0.0
2017-Sep-19 16:30N 30°11' W 093°19'0 0.0
2017-Sep-19 16:00N 30°11' W 093°19'0 0.0
2017-Sep-19 15:30N 30°11' W 093°19'0 0.0
2017-Sep-19 15:00N 30°11' W 093°19'  

Dump ship's entire track history